sensor_id;sensor_type;location;lat;lon;timestamp;P1;durP1;ratioP1;P2;durP2;ratioP2
23169;SDS011;11753;43.144;24.714;2023-05-07T00:00:47;5.88;;;4.47;;
23169;SDS011;11753;43.144;24.714;2023-05-07T00:01:48;8.43;;;4.93;;
23169;SDS011;11753;43.144;24.714;2023-05-07T00:02:49;7.53;;;4.60;;
23169;SDS011;11753;43.144;24.714;2023-05-07T00:03:50;6.07;;;4.65;;
23169;SDS011;11753;43.144;24.714;2023-05-07T00:04:51;9.15;;;4.40;;
23169;SDS011;11753;43.144;24.714;2023-05-07T00:05:52;6.53;;;4.57;;
23169;SDS011;11753;43.144;24.714;2023-05-07T00:06:56;7.75;;;4.78;;
23169;SDS011;11753;43.144;24.714;2023-05-07T00:07:57;7.20;;;4.97;;
23169;SDS011;11753;43.144;24.714;2023-05-07T00:08:58;6.38;;;4.90;;
23169;SDS011;11753;43.144;24.714;2023-05-07T00:09:59;6.88;;;4.45;;
23169;SDS011;11753;43.144;24.714;2023-05-07T00:11:00;7.47;;;4.35;;
23169;SDS011;11753;43.144;24.714;2023-05-07T00:12:01;7.47;;;5.03;;
23169;SDS011;11753;43.144;24.714;2023-05-07T00:13:02;6.57;;;4.63;;
23169;SDS011;11753;43.144;24.714;2023-05-07T00:14:03;5.85;;;4.10;;
23169;SDS011;11753;43.144;24.714;2023-05-07T00:15:04;7.85;;;5.10;;
23169;SDS011;11753;43.144;24.714;2023-05-07T00:16:06;6.22;;;4.75;;
23169;SDS011;11753;43.144;24.714;2023-05-07T00:17:07;5.63;;;4.25;;
23169;SDS011;11753;43.144;24.714;2023-05-07T00:18:07;6.28;;;4.60;;
23169;SDS011;11753;43.144;24.714;2023-05-07T00:19:08;7.82;;;4.95;;
23169;SDS011;11753;43.144;24.714;2023-05-07T00:20:09;6.35;;;4.25;;
23169;SDS011;11753;43.144;24.714;2023-05-07T00:21:10;5.40;;;4.05;;
23169;SDS011;11753;43.144;24.714;2023-05-07T00:22:11;6.10;;;4.38;;
23169;SDS011;11753;43.144;24.714;2023-05-07T00:23:12;7.07;;;4.85;;
23169;SDS011;11753;43.144;24.714;2023-05-07T00:24:13;6.72;;;4.55;;
23169;SDS011;11753;43.144;24.714;2023-05-07T00:25:14;7.70;;;4.50;;
23169;SDS011;11753;43.144;24.714;2023-05-07T00:26:15;7.25;;;4.50;;
23169;SDS011;11753;43.144;24.714;2023-05-07T00:27:16;8.55;;;4.75;;
23169;SDS011;11753;43.144;24.714;2023-05-07T00:28:17;8.27;;;4.70;;
23169;SDS011;11753;43.144;24.714;2023-05-07T00:29:18;5.97;;;4.13;;
23169;SDS011;11753;43.144;24.714;2023-05-07T00:30:22;5.95;;;4.03;;
23169;SDS011;11753;43.144;24.714;2023-05-07T00:31:23;6.15;;;4.47;;
23169;SDS011;11753;43.144;24.714;2023-05-07T00:32:24;6.63;;;4.30;;
23169;SDS011;11753;43.144;24.714;2023-05-07T00:33:25;6.20;;;4.63;;
23169;SDS011;11753;43.144;24.714;2023-05-07T00:34:27;5.68;;;4.20;;
23169;SDS011;11753;43.144;24.714;2023-05-07T00:35:30;7.60;;;4.88;;
23169;SDS011;11753;43.144;24.714;2023-05-07T00:36:31;6.75;;;4.53;;
23169;SDS011;11753;43.144;24.714;2023-05-07T00:37:32;6.20;;;4.10;;
23169;SDS011;11753;43.144;24.714;2023-05-07T00:38:33;6.03;;;4.50;;
23169;SDS011;11753;43.144;24.714;2023-05-07T00:39:34;8.10;;;4.40;;
23169;SDS011;11753;43.144;24.714;2023-05-07T00:40:36;7.72;;;4.78;;
23169;SDS011;11753;43.144;24.714;2023-05-07T00:41:36;7.05;;;4.45;;
23169;SDS011;11753;43.144;24.714;2023-05-07T00:42:37;6.10;;;4.25;;
23169;SDS011;11753;43.144;24.714;2023-05-07T00:43:38;6.60;;;4.63;;
23169;SDS011;11753;43.144;24.714;2023-05-07T00:44:39;6.10;;;4.63;;
23169;SDS011;11753;43.144;24.714;2023-05-07T00:45:39;8.23;;;4.47;;
23169;SDS011;11753;43.144;24.714;2023-05-07T00:46:40;7.40;;;5.10;;
23169;SDS011;11753;43.144;24.714;2023-05-07T00:47:41;7.40;;;4.70;;
23169;SDS011;11753;43.144;24.714;2023-05-07T00:48:42;6.53;;;4.43;;
23169;SDS011;11753;43.144;24.714;2023-05-07T00:49:44;7.18;;;4.53;;
23169;SDS011;11753;43.144;24.714;2023-05-07T00:50:46;6.68;;;4.30;;
23169;SDS011;11753;43.144;24.714;2023-05-07T00:51:48;6.43;;;4.78;;
23169;SDS011;11753;43.144;24.714;2023-05-07T00:52:49;6.40;;;4.32;;
23169;SDS011;11753;43.144;24.714;2023-05-07T00:53:51;6.70;;;4.85;;
23169;SDS011;11753;43.144;24.714;2023-05-07T00:54:52;7.28;;;4.63;;
23169;SDS011;11753;43.144;24.714;2023-05-07T00:55:53;6.60;;;4.78;;
23169;SDS011;11753;43.144;24.714;2023-05-07T00:56:54;9.13;;;4.55;;
23169;SDS011;11753;43.144;24.714;2023-05-07T00:57:55;8.35;;;4.50;;
23169;SDS011;11753;43.144;24.714;2023-05-07T00:58:57;6.60;;;5.10;;
23169;SDS011;11753;43.144;24.714;2023-05-07T00:59:58;9.68;;;4.50;;
23169;SDS011;11753;43.144;24.714;2023-05-07T01:00:59;5.43;;;4.10;;
23169;SDS011;11753;43.144;24.714;2023-05-07T01:02:00;7.45;;;4.70;;
23169;SDS011;11753;43.144;24.714;2023-05-07T01:03:01;6.90;;;5.00;;
23169;SDS011;11753;43.144;24.714;2023-05-07T01:04:02;7.45;;;4.68;;
23169;SDS011;11753;43.144;24.714;2023-05-07T01:05:03;7.28;;;4.60;;
23169;SDS011;11753;43.144;24.714;2023-05-07T01:06:06;7.53;;;5.35;;
23169;SDS011;11753;43.144;24.714;2023-05-07T01:07:08;5.95;;;4.60;;
23169;SDS011;11753;43.144;24.714;2023-05-07T01:08:09;7.22;;;4.13;;
23169;SDS011;11753;43.144;24.714;2023-05-07T01:09:11;7.63;;;5.07;;
23169;SDS011;11753;43.144;24.714;2023-05-07T01:10:12;5.50;;;4.05;;
23169;SDS011;11753;43.144;24.714;2023-05-07T01:11:14;7.13;;;4.45;;
23169;SDS011;11753;43.144;24.714;2023-05-07T01:12:16;6.40;;;4.50;;
23169;SDS011;11753;43.144;24.714;2023-05-07T01:13:17;9.00;;;4.47;;
23169;SDS011;11753;43.144;24.714;2023-05-07T01:14:19;7.95;;;4.95;;
23169;SDS011;11753;43.144;24.714;2023-05-07T01:15:20;5.72;;;3.97;;
23169;SDS011;11753;43.144;24.714;2023-05-07T01:16:21;6.50;;;4.70;;
23169;SDS011;11753;43.144;24.714;2023-05-07T01:17:22;6.00;;;4.45;;
23169;SDS011;11753;43.144;24.714;2023-05-07T01:18:24;6.60;;;4.07;;
23169;SDS011;11753;43.144;24.714;2023-05-07T01:19:26;5.60;;;4.20;;
23169;SDS011;11753;43.144;24.714;2023-05-07T01:20:28;5.53;;;4.30;;
23169;SDS011;11753;43.144;24.714;2023-05-07T01:21:30;7.20;;;4.50;;
23169;SDS011;11753;43.144;24.714;2023-05-07T01:22:34;7.95;;;4.32;;
23169;SDS011;11753;43.144;24.714;2023-05-07T01:23:37;6.10;;;4.35;;
23169;SDS011;11753;43.144;24.714;2023-05-07T01:24:39;7.40;;;4.82;;
23169;SDS011;11753;43.144;24.714;2023-05-07T01:25:42;7.28;;;5.05;;
23169;SDS011;11753;43.144;24.714;2023-05-07T01:26:43;6.05;;;4.65;;
23169;SDS011;11753;43.144;24.714;2023-05-07T01:27:44;6.72;;;4.50;;
23169;SDS011;11753;43.144;24.714;2023-05-07T01:28:45;8.18;;;4.25;;
23169;SDS011;11753;43.144;24.714;2023-05-07T01:29:49;6.80;;;4.47;;
23169;SDS011;11753;43.144;24.714;2023-05-07T01:30:51;5.82;;;4.20;;
23169;SDS011;11753;43.144;24.714;2023-05-07T01:31:59;6.05;;;4.35;;
23169;SDS011;11753;43.144;24.714;2023-05-07T01:33:11;7.53;;;4.85;;
23169;SDS011;11753;43.144;24.714;2023-05-07T01:34:16;8.02;;;4.70;;
23169;SDS011;11753;43.144;24.714;2023-05-07T01:35:19;5.72;;;4.53;;
23169;SDS011;11753;43.144;24.714;2023-05-07T01:36:22;6.45;;;4.78;;
23169;SDS011;11753;43.144;24.714;2023-05-07T01:37:26;5.10;;;4.25;;
23169;SDS011;11753;43.144;24.714;2023-05-07T01:38:28;5.85;;;4.57;;
23169;SDS011;11753;43.144;24.714;2023-05-07T01:39:30;7.60;;;4.72;;
23169;SDS011;11753;43.144;24.714;2023-05-07T01:40:31;8.20;;;4.68;;
23169;SDS011;11753;43.144;24.714;2023-05-07T01:41:34;7.20;;;5.05;;
23169;SDS011;11753;43.144;24.714;2023-05-07T01:42:36;6.68;;;4.93;;
23169;SDS011;11753;43.144;24.714;2023-05-07T01:43:37;5.63;;;4.38;;
23169;SDS011;11753;43.144;24.714;2023-05-07T01:44:37;6.13;;;4.55;;
23169;SDS011;11753;43.144;24.714;2023-05-07T01:45:38;7.18;;;4.78;;
23169;SDS011;11753;43.144;24.714;2023-05-07T01:46:39;8.02;;;5.05;;
23169;SDS011;11753;43.144;24.714;2023-05-07T01:47:40;7.57;;;5.32;;
23169;SDS011;11753;43.144;24.714;2023-05-07T01:48:41;7.05;;;5.30;;
23169;SDS011;11753;43.144;24.714;2023-05-07T01:49:42;10.30;;;5.40;;
23169;SDS011;11753;43.144;24.714;2023-05-07T01:50:43;7.28;;;5.47;;
23169;SDS011;11753;43.144;24.714;2023-05-07T01:51:45;8.55;;;5.70;;
23169;SDS011;11753;43.144;24.714;2023-05-07T01:52:47;7.22;;;5.03;;
23169;SDS011;11753;43.144;24.714;2023-05-07T01:53:49;7.15;;;5.03;;
23169;SDS011;11753;43.144;24.714;2023-05-07T01:54:52;7.18;;;5.10;;
23169;SDS011;11753;43.144;24.714;2023-05-07T01:55:53;13.63;;;5.20;;
23169;SDS011;11753;43.144;24.714;2023-05-07T01:56:55;8.18;;;5.53;;
23169;SDS011;11753;43.144;24.714;2023-05-07T01:57:57;7.63;;;5.15;;
23169;SDS011;11753;43.144;24.714;2023-05-07T01:58:57;8.52;;;5.35;;
23169;SDS011;11753;43.144;24.714;2023-05-07T01:59:58;7.35;;;5.22;;
23169;SDS011;11753;43.144;24.714;2023-05-07T02:00:59;5.68;;;4.40;;
23169;SDS011;11753;43.144;24.714;2023-05-07T02:02:00;7.55;;;5.25;;
23169;SDS011;11753;43.144;24.714;2023-05-07T02:03:01;7.53;;;4.97;;
23169;SDS011;11753;43.144;24.714;2023-05-07T02:04:03;7.25;;;5.00;;
23169;SDS011;11753;43.144;24.714;2023-05-07T02:05:04;7.72;;;5.07;;
23169;SDS011;11753;43.144;24.714;2023-05-07T02:06:05;8.45;;;5.00;;
23169;SDS011;11753;43.144;24.714;2023-05-07T02:07:06;10.02;;;5.50;;
23169;SDS011;11753;43.144;24.714;2023-05-07T02:08:07;6.50;;;4.60;;
23169;SDS011;11753;43.144;24.714;2023-05-07T02:09:08;7.10;;;5.20;;
23169;SDS011;11753;43.144;24.714;2023-05-07T02:10:12;7.95;;;4.88;;
23169;SDS011;11753;43.144;24.714;2023-05-07T02:11:13;8.60;;;5.70;;
23169;SDS011;11753;43.144;24.714;2023-05-07T02:12:14;6.90;;;5.28;;
23169;SDS011;11753;43.144;24.714;2023-05-07T02:13:14;9.88;;;6.07;;
23169;SDS011;11753;43.144;24.714;2023-05-07T02:14:15;6.60;;;5.43;;
23169;SDS011;11753;43.144;24.714;2023-05-07T02:15:16;8.55;;;5.55;;
23169;SDS011;11753;43.144;24.714;2023-05-07T02:16:17;6.60;;;4.80;;
23169;SDS011;11753;43.144;24.714;2023-05-07T02:17:19;7.60;;;5.00;;
23169;SDS011;11753;43.144;24.714;2023-05-07T02:18:20;7.63;;;4.78;;
23169;SDS011;11753;43.144;24.714;2023-05-07T02:19:21;8.48;;;4.88;;
23169;SDS011;11753;43.144;24.714;2023-05-07T02:20:21;8.00;;;5.22;;
23169;SDS011;11753;43.144;24.714;2023-05-07T02:21:22;6.47;;;5.28;;
23169;SDS011;11753;43.144;24.714;2023-05-07T02:22:23;7.78;;;4.88;;
23169;SDS011;11753;43.144;24.714;2023-05-07T02:23:23;7.57;;;4.70;;
23169;SDS011;11753;43.144;24.714;2023-05-07T02:24:24;6.72;;;4.75;;
23169;SDS011;11753;43.144;24.714;2023-05-07T02:25:25;6.13;;;4.90;;
23169;SDS011;11753;43.144;24.714;2023-05-07T02:26:26;7.57;;;5.40;;
23169;SDS011;11753;43.144;24.714;2023-05-07T02:27:27;6.88;;;4.93;;
23169;SDS011;11753;43.144;24.714;2023-05-07T02:28:28;6.10;;;5.03;;
23169;SDS011;11753;43.144;24.714;2023-05-07T02:29:29;5.90;;;4.90;;
23169;SDS011;11753;43.144;24.714;2023-05-07T02:30:31;9.18;;;5.13;;
23169;SDS011;11753;43.144;24.714;2023-05-07T02:31:33;6.93;;;5.10;;
23169;SDS011;11753;43.144;24.714;2023-05-07T02:32:34;7.25;;;4.32;;
23169;SDS011;11753;43.144;24.714;2023-05-07T02:33:35;8.40;;;5.22;;
23169;SDS011;11753;43.144;24.714;2023-05-07T02:34:36;7.10;;;5.00;;
23169;SDS011;11753;43.144;24.714;2023-05-07T02:35:37;7.05;;;4.68;;
23169;SDS011;11753;43.144;24.714;2023-05-07T02:36:38;7.72;;;4.95;;
23169;SDS011;11753;43.144;24.714;2023-05-07T02:37:40;7.03;;;5.05;;
23169;SDS011;11753;43.144;24.714;2023-05-07T02:38:41;7.25;;;4.90;;
23169;SDS011;11753;43.144;24.714;2023-05-07T02:39:42;6.90;;;5.15;;
23169;SDS011;11753;43.144;24.714;2023-05-07T02:40:43;6.43;;;4.22;;
23169;SDS011;11753;43.144;24.714;2023-05-07T02:41:44;9.30;;;5.55;;
23169;SDS011;11753;43.144;24.714;2023-05-07T02:42:45;7.03;;;4.80;;
23169;SDS011;11753;43.144;24.714;2023-05-07T02:43:46;5.55;;;4.60;;
23169;SDS011;11753;43.144;24.714;2023-05-07T02:44:47;8.38;;;5.00;;
23169;SDS011;11753;43.144;24.714;2023-05-07T02:45:48;9.00;;;5.38;;
23169;SDS011;11753;43.144;24.714;2023-05-07T02:46:49;8.20;;;4.78;;
23169;SDS011;11753;43.144;24.714;2023-05-07T02:47:49;7.53;;;5.00;;
23169;SDS011;11753;43.144;24.714;2023-05-07T02:48:50;8.05;;;5.32;;
23169;SDS011;11753;43.144;24.714;2023-05-07T02:49:50;6.25;;;5.28;;
23169;SDS011;11753;43.144;24.714;2023-05-07T02:50:51;7.28;;;5.50;;
23169;SDS011;11753;43.144;24.714;2023-05-07T02:51:51;8.48;;;5.22;;
23169;SDS011;11753;43.144;24.714;2023-05-07T02:52:52;7.05;;;5.15;;
23169;SDS011;11753;43.144;24.714;2023-05-07T02:53:52;6.68;;;5.10;;
23169;SDS011;11753;43.144;24.714;2023-05-07T02:54:53;8.32;;;5.68;;
23169;SDS011;11753;43.144;24.714;2023-05-07T02:55:54;7.25;;;5.32;;
23169;SDS011;11753;43.144;24.714;2023-05-07T02:56:57;7.32;;;4.80;;
23169;SDS011;11753;43.144;24.714;2023-05-07T02:57:58;8.27;;;5.63;;
23169;SDS011;11753;43.144;24.714;2023-05-07T02:58:59;9.27;;;5.57;;
23169;SDS011;11753;43.144;24.714;2023-05-07T03:00:06;8.93;;;5.78;;
23169;SDS011;11753;43.144;24.714;2023-05-07T03:01:11;8.90;;;5.60;;
23169;SDS011;11753;43.144;24.714;2023-05-07T03:02:14;7.68;;;5.35;;
23169;SDS011;11753;43.144;24.714;2023-05-07T03:03:15;7.68;;;5.47;;
23169;SDS011;11753;43.144;24.714;2023-05-07T03:04:16;8.82;;;5.05;;
23169;SDS011;11753;43.144;24.714;2023-05-07T03:05:17;6.97;;;4.95;;
23169;SDS011;11753;43.144;24.714;2023-05-07T03:06:18;8.43;;;5.50;;
23169;SDS011;11753;43.144;24.714;2023-05-07T03:07:19;6.55;;;5.05;;
23169;SDS011;11753;43.144;24.714;2023-05-07T03:08:20;6.05;;;5.03;;
23169;SDS011;11753;43.144;24.714;2023-05-07T03:09:21;6.95;;;4.80;;
23169;SDS011;11753;43.144;24.714;2023-05-07T03:10:22;6.05;;;5.10;;
23169;SDS011;11753;43.144;24.714;2023-05-07T03:11:23;7.70;;;5.35;;
23169;SDS011;11753;43.144;24.714;2023-05-07T03:12:23;8.68;;;6.15;;
23169;SDS011;11753;43.144;24.714;2023-05-07T03:13:24;9.55;;;6.53;;
23169;SDS011;11753;43.144;24.714;2023-05-07T03:14:25;8.07;;;5.85;;
23169;SDS011;11753;43.144;24.714;2023-05-07T03:15:26;9.13;;;6.28;;
23169;SDS011;11753;43.144;24.714;2023-05-07T03:16:27;8.25;;;5.80;;
23169;SDS011;11753;43.144;24.714;2023-05-07T03:17:28;11.73;;;6.30;;
23169;SDS011;11753;43.144;24.714;2023-05-07T03:18:29;8.85;;;6.03;;
23169;SDS011;11753;43.144;24.714;2023-05-07T03:19:30;8.02;;;5.93;;
23169;SDS011;11753;43.144;24.714;2023-05-07T03:20:31;10.40;;;7.43;;
23169;SDS011;11753;43.144;24.714;2023-05-07T03:21:31;11.88;;;7.95;;
23169;SDS011;11753;43.144;24.714;2023-05-07T03:22:33;9.40;;;6.85;;
23169;SDS011;11753;43.144;24.714;2023-05-07T03:23:34;12.07;;;8.25;;
23169;SDS011;11753;43.144;24.714;2023-05-07T03:24:35;12.15;;;7.97;;
23169;SDS011;11753;43.144;24.714;2023-05-07T03:25:36;8.23;;;5.78;;
23169;SDS011;11753;43.144;24.714;2023-05-07T03:26:37;10.45;;;6.72;;
23169;SDS011;11753;43.144;24.714;2023-05-07T03:27:38;14.25;;;8.90;;
23169;SDS011;11753;43.144;24.714;2023-05-07T03:28:39;14.77;;;8.95;;
23169;SDS011;11753;43.144;24.714;2023-05-07T03:29:40;16.73;;;9.82;;
23169;SDS011;11753;43.144;24.714;2023-05-07T03:30:41;22.55;;;11.35;;
23169;SDS011;11753;43.144;24.714;2023-05-07T03:31:42;17.35;;;8.45;;
23169;SDS011;11753;43.144;24.714;2023-05-07T03:32:43;13.25;;;7.15;;
23169;SDS011;11753;43.144;24.714;2023-05-07T03:33:56;31.65;;;15.77;;
23169;SDS011;11753;43.144;24.714;2023-05-07T03:34:58;16.63;;;10.02;;
23169;SDS011;11753;43.144;24.714;2023-05-07T03:35:59;14.60;;;8.93;;
23169;SDS011;11753;43.144;24.714;2023-05-07T03:36:59;32.08;;;18.15;;
23169;SDS011;11753;43.144;24.714;2023-05-07T03:38:00;22.35;;;13.57;;
23169;SDS011;11753;43.144;24.714;2023-05-07T03:39:01;14.20;;;8.63;;
23169;SDS011;11753;43.144;24.714;2023-05-07T03:40:03;11.48;;;8.07;;
23169;SDS011;11753;43.144;24.714;2023-05-07T03:41:04;14.23;;;8.70;;
23169;SDS011;11753;43.144;24.714;2023-05-07T03:42:05;45.47;;;22.75;;
23169;SDS011;11753;43.144;24.714;2023-05-07T03:43:06;25.58;;;13.85;;
23169;SDS011;11753;43.144;24.714;2023-05-07T03:44:07;15.65;;;9.25;;
23169;SDS011;11753;43.144;24.714;2023-05-07T03:45:08;16.17;;;9.50;;
23169;SDS011;11753;43.144;24.714;2023-05-07T03:46:10;11.43;;;7.07;;
23169;SDS011;11753;43.144;24.714;2023-05-07T03:47:11;12.10;;;6.10;;
23169;SDS011;11753;43.144;24.714;2023-05-07T03:48:13;10.10;;;6.55;;
23169;SDS011;11753;43.144;24.714;2023-05-07T03:49:14;8.38;;;6.05;;
23169;SDS011;11753;43.144;24.714;2023-05-07T03:50:15;7.70;;;5.28;;
23169;SDS011;11753;43.144;24.714;2023-05-07T03:51:16;14.23;;;8.32;;
23169;SDS011;11753;43.144;24.714;2023-05-07T03:52:17;11.52;;;7.28;;
23169;SDS011;11753;43.144;24.714;2023-05-07T03:53:23;15.63;;;8.23;;
23169;SDS011;11753;43.144;24.714;2023-05-07T03:54:26;9.98;;;6.00;;
23169;SDS011;11753;43.144;24.714;2023-05-07T03:55:27;8.77;;;4.80;;
23169;SDS011;11753;43.144;24.714;2023-05-07T03:56:28;8.98;;;5.68;;
23169;SDS011;11753;43.144;24.714;2023-05-07T03:57:29;13.45;;;7.10;;
23169;SDS011;11753;43.144;24.714;2023-05-07T03:58:30;14.30;;;7.18;;
23169;SDS011;11753;43.144;24.714;2023-05-07T03:59:31;13.27;;;8.52;;
23169;SDS011;11753;43.144;24.714;2023-05-07T04:00:31;11.90;;;7.63;;
23169;SDS011;11753;43.144;24.714;2023-05-07T04:01:39;11.30;;;6.03;;
23169;SDS011;11753;43.144;24.714;2023-05-07T04:02:40;7.65;;;5.22;;
23169;SDS011;11753;43.144;24.714;2023-05-07T04:03:40;9.98;;;5.28;;
23169;SDS011;11753;43.144;24.714;2023-05-07T04:04:41;10.55;;;6.38;;
23169;SDS011;11753;43.144;24.714;2023-05-07T04:05:42;8.65;;;6.32;;
23169;SDS011;11753;43.144;24.714;2023-05-07T04:06:42;9.30;;;6.70;;
23169;SDS011;11753;43.144;24.714;2023-05-07T04:07:43;9.52;;;6.93;;
23169;SDS011;11753;43.144;24.714;2023-05-07T04:08:44;8.65;;;5.65;;
23169;SDS011;11753;43.144;24.714;2023-05-07T04:09:45;10.98;;;7.60;;
23169;SDS011;11753;43.144;24.714;2023-05-07T04:10:45;13.13;;;9.45;;
23169;SDS011;11753;43.144;24.714;2023-05-07T04:11:46;11.23;;;7.85;;
23169;SDS011;11753;43.144;24.714;2023-05-07T04:12:47;10.65;;;6.22;;
23169;SDS011;11753;43.144;24.714;2023-05-07T04:13:48;7.45;;;5.72;;
23169;SDS011;11753;43.144;24.714;2023-05-07T04:14:49;8.20;;;6.82;;
23169;SDS011;11753;43.144;24.714;2023-05-07T04:15:51;6.88;;;5.57;;
23169;SDS011;11753;43.144;24.714;2023-05-07T04:16:53;6.47;;;5.28;;
23169;SDS011;11753;43.144;24.714;2023-05-07T04:17:54;8.60;;;4.80;;
23169;SDS011;11753;43.144;24.714;2023-05-07T04:18:55;11.52;;;5.60;;
23169;SDS011;11753;43.144;24.714;2023-05-07T04:19:58;8.27;;;5.30;;
23169;SDS011;11753;43.144;24.714;2023-05-07T04:20:59;7.90;;;5.25;;
23169;SDS011;11753;43.144;24.714;2023-05-07T04:22:00;7.07;;;5.32;;
23169;SDS011;11753;43.144;24.714;2023-05-07T04:23:01;9.35;;;4.70;;
23169;SDS011;11753;43.144;24.714;2023-05-07T04:24:03;8.88;;;5.20;;
23169;SDS011;11753;43.144;24.714;2023-05-07T04:25:04;6.88;;;5.25;;
23169;SDS011;11753;43.144;24.714;2023-05-07T04:26:06;6.78;;;5.10;;
23169;SDS011;11753;43.144;24.714;2023-05-07T04:27:07;8.60;;;5.25;;
23169;SDS011;11753;43.144;24.714;2023-05-07T04:28:08;6.63;;;5.15;;
23169;SDS011;11753;43.144;24.714;2023-05-07T04:29:09;7.78;;;5.43;;
23169;SDS011;11753;43.144;24.714;2023-05-07T04:30:14;8.50;;;5.22;;
23169;SDS011;11753;43.144;24.714;2023-05-07T04:31:15;9.75;;;5.97;;
23169;SDS011;11753;43.144;24.714;2023-05-07T04:32:16;12.07;;;7.13;;
23169;SDS011;11753;43.144;24.714;2023-05-07T04:33:18;18.02;;;8.98;;
23169;SDS011;11753;43.144;24.714;2023-05-07T04:34:19;11.90;;;7.07;;
23169;SDS011;11753;43.144;24.714;2023-05-07T04:35:21;13.55;;;9.25;;
23169;SDS011;11753;43.144;24.714;2023-05-07T04:36:22;14.48;;;9.32;;
23169;SDS011;11753;43.144;24.714;2023-05-07T04:37:23;18.52;;;8.98;;
23169;SDS011;11753;43.144;24.714;2023-05-07T04:38:23;50.17;;;21.50;;
23169;SDS011;11753;43.144;24.714;2023-05-07T04:39:27;13.93;;;8.20;;
23169;SDS011;11753;43.144;24.714;2023-05-07T04:40:28;10.68;;;5.50;;
23169;SDS011;11753;43.144;24.714;2023-05-07T04:41:29;8.52;;;5.50;;
23169;SDS011;11753;43.144;24.714;2023-05-07T04:42:30;10.27;;;6.53;;
23169;SDS011;11753;43.144;24.714;2023-05-07T04:43:31;14.02;;;6.13;;
23169;SDS011;11753;43.144;24.714;2023-05-07T04:44:32;12.27;;;7.30;;
23169;SDS011;11753;43.144;24.714;2023-05-07T04:45:33;11.93;;;7.53;;
23169;SDS011;11753;43.144;24.714;2023-05-07T04:46:33;14.05;;;7.10;;
23169;SDS011;11753;43.144;24.714;2023-05-07T04:47:34;9.63;;;6.10;;
23169;SDS011;11753;43.144;24.714;2023-05-07T04:48:35;9.57;;;6.90;;
23169;SDS011;11753;43.144;24.714;2023-05-07T04:49:36;8.43;;;5.32;;
23169;SDS011;11753;43.144;24.714;2023-05-07T04:50:38;8.88;;;5.75;;
23169;SDS011;11753;43.144;24.714;2023-05-07T04:51:39;9.80;;;5.60;;
23169;SDS011;11753;43.144;24.714;2023-05-07T04:52:43;6.75;;;5.00;;
23169;SDS011;11753;43.144;24.714;2023-05-07T04:53:44;6.95;;;4.90;;
23169;SDS011;11753;43.144;24.714;2023-05-07T04:54:45;6.82;;;5.32;;
23169;SDS011;11753;43.144;24.714;2023-05-07T04:55:46;6.22;;;4.93;;
23169;SDS011;11753;43.144;24.714;2023-05-07T04:56:47;6.45;;;4.95;;
23169;SDS011;11753;43.144;24.714;2023-05-07T04:57:48;8.23;;;5.70;;
23169;SDS011;11753;43.144;24.714;2023-05-07T04:58:50;8.77;;;5.43;;
23169;SDS011;11753;43.144;24.714;2023-05-07T04:59:53;7.60;;;5.10;;
23169;SDS011;11753;43.144;24.714;2023-05-07T05:00:54;8.23;;;5.38;;
23169;SDS011;11753;43.144;24.714;2023-05-07T05:01:56;7.00;;;5.32;;
23169;SDS011;11753;43.144;24.714;2023-05-07T05:02:58;7.88;;;5.10;;
23169;SDS011;11753;43.144;24.714;2023-05-07T05:03:58;7.53;;;5.45;;
23169;SDS011;11753;43.144;24.714;2023-05-07T05:05:01;9.50;;;6.32;;
23169;SDS011;11753;43.144;24.714;2023-05-07T05:06:05;8.70;;;6.22;;
23169;SDS011;11753;43.144;24.714;2023-05-07T05:07:06;7.25;;;5.40;;
23169;SDS011;11753;43.144;24.714;2023-05-07T05:08:06;9.15;;;5.55;;
23169;SDS011;11753;43.144;24.714;2023-05-07T05:09:07;7.35;;;5.63;;
23169;SDS011;11753;43.144;24.714;2023-05-07T05:10:08;8.30;;;5.45;;
23169;SDS011;11753;43.144;24.714;2023-05-07T05:11:09;8.88;;;6.18;;
23169;SDS011;11753;43.144;24.714;2023-05-07T05:12:12;9.15;;;6.25;;
23169;SDS011;11753;43.144;24.714;2023-05-07T05:13:13;8.45;;;5.13;;
23169;SDS011;11753;43.144;24.714;2023-05-07T05:14:13;9.90;;;5.32;;
23169;SDS011;11753;43.144;24.714;2023-05-07T05:15:14;7.72;;;4.90;;
23169;SDS011;11753;43.144;24.714;2023-05-07T05:16:17;8.48;;;4.97;;
23169;SDS011;11753;43.144;24.714;2023-05-07T05:17:18;15.23;;;9.15;;
23169;SDS011;11753;43.144;24.714;2023-05-07T05:18:19;18.25;;;12.98;;
23169;SDS011;11753;43.144;24.714;2023-05-07T05:19:20;14.15;;;10.32;;
23169;SDS011;11753;43.144;24.714;2023-05-07T05:20:21;16.65;;;11.90;;
23169;SDS011;11753;43.144;24.714;2023-05-07T05:21:22;15.95;;;10.48;;
23169;SDS011;11753;43.144;24.714;2023-05-07T05:22:23;9.55;;;6.88;;
23169;SDS011;11753;43.144;24.714;2023-05-07T05:23:26;11.02;;;7.22;;
23169;SDS011;11753;43.144;24.714;2023-05-07T05:24:27;8.73;;;5.82;;
23169;SDS011;11753;43.144;24.714;2023-05-07T05:25:28;10.70;;;5.35;;
23169;SDS011;11753;43.144;24.714;2023-05-07T05:26:29;8.65;;;5.55;;
23169;SDS011;11753;43.144;24.714;2023-05-07T05:27:32;7.78;;;5.57;;
23169;SDS011;11753;43.144;24.714;2023-05-07T05:28:33;6.65;;;5.30;;
23169;SDS011;11753;43.144;24.714;2023-05-07T05:29:34;6.50;;;4.80;;
23169;SDS011;11753;43.144;24.714;2023-05-07T05:30:35;6.35;;;5.10;;
23169;SDS011;11753;43.144;24.714;2023-05-07T05:31:36;6.55;;;4.55;;
23169;SDS011;11753;43.144;24.714;2023-05-07T05:32:36;5.57;;;4.47;;
23169;SDS011;11753;43.144;24.714;2023-05-07T05:33:37;5.45;;;4.18;;
23169;SDS011;11753;43.144;24.714;2023-05-07T05:34:38;5.95;;;5.03;;
23169;SDS011;11753;43.144;24.714;2023-05-07T05:35:39;5.38;;;4.38;;
23169;SDS011;11753;43.144;24.714;2023-05-07T05:36:40;6.90;;;4.65;;
23169;SDS011;11753;43.144;24.714;2023-05-07T05:37:41;7.47;;;4.57;;
23169;SDS011;11753;43.144;24.714;2023-05-07T05:38:42;8.02;;;4.55;;
23169;SDS011;11753;43.144;24.714;2023-05-07T05:39:44;6.18;;;4.88;;
23169;SDS011;11753;43.144;24.714;2023-05-07T05:40:45;10.50;;;7.40;;
23169;SDS011;11753;43.144;24.714;2023-05-07T05:41:46;12.63;;;8.65;;
23169;SDS011;11753;43.144;24.714;2023-05-07T05:42:47;10.57;;;6.97;;
23169;SDS011;11753;43.144;24.714;2023-05-07T05:43:48;12.00;;;7.30;;
23169;SDS011;11753;43.144;24.714;2023-05-07T05:44:49;12.80;;;11.43;;
23169;SDS011;11753;43.144;24.714;2023-05-07T05:45:50;11.43;;;9.38;;
23169;SDS011;11753;43.144;24.714;2023-05-07T05:46:51;16.30;;;13.55;;
23169;SDS011;11753;43.144;24.714;2023-05-07T05:47:52;18.55;;;16.33;;
23169;SDS011;11753;43.144;24.714;2023-05-07T05:48:53;22.08;;;19.88;;
23169;SDS011;11753;43.144;24.714;2023-05-07T05:49:54;18.42;;;16.25;;
23169;SDS011;11753;43.144;24.714;2023-05-07T05:50:55;21.05;;;19.00;;
23169;SDS011;11753;43.144;24.714;2023-05-07T05:51:56;14.35;;;12.85;;
23169;SDS011;11753;43.144;24.714;2023-05-07T05:52:57;8.65;;;7.75;;
23169;SDS011;11753;43.144;24.714;2023-05-07T05:53:58;7.75;;;5.65;;
23169;SDS011;11753;43.144;24.714;2023-05-07T05:54:58;8.98;;;5.50;;
23169;SDS011;11753;43.144;24.714;2023-05-07T05:56:01;14.95;;;10.60;;
23169;SDS011;11753;43.144;24.714;2023-05-07T05:57:02;11.73;;;7.80;;
23169;SDS011;11753;43.144;24.714;2023-05-07T05:58:05;16.48;;;11.05;;
23169;SDS011;11753;43.144;24.714;2023-05-07T05:59:06;15.93;;;11.80;;
23169;SDS011;11753;43.144;24.714;2023-05-07T06:00:07;17.88;;;12.23;;
23169;SDS011;11753;43.144;24.714;2023-05-07T06:01:08;13.50;;;10.13;;
23169;SDS011;11753;43.144;24.714;2023-05-07T06:02:08;12.85;;;8.43;;
23169;SDS011;11753;43.144;24.714;2023-05-07T06:03:09;10.35;;;6.53;;